Time;durP1;ratioP1;P1;durP2;ratioP2;P2;SDS_P1;SDS_P2;PMS_P1;PMS_P2;Temp;Humidity;BMP_temperature;BMP_pressure;BME280_temperature;BME280_humidity;BME280_pressure;Samples;Min_cycle;Max_cycle;Signal;HPM_P1;HPM_P2
2021/04/08 00:01:33;;;;;;;3.50;2.53;;;;;;;2.15;91.50;99242.53;6162717;22;102976;-78
2021/04/08 00:04:00;;;;;;;4.03;3.00;;;;;;;1.99;91.84;99252.56;6163998;22;102836;-80
2021/04/08 00:06:28;;;;;;;3.57;2.93;;;;;;;2.01;92.38;99247.31;6162738;22;104568;-79
2021/04/08 00:08:55;;;;;;;5.37;3.50;;;;;;;1.95;92.86;99248.34;6137499;22;103301;-79
2021/04/08 00:11:22;;;;;;;5.70;3.57;;;;;;;1.94;92.39;99257.03;6136360;22;103023;-79
2021/04/08 00:13:49;;;;;;;6.10;3.47;;;;;;;1.96;92.83;99254.41;6141301;22;103860;-79
2021/04/08 00:16:16;;;;;;;5.10;3.47;;;;;;;1.94;92.77;99253.59;6142871;22;103764;-79
2021/04/08 00:18:44;;;;;;;5.40;4.30;;;;;;;1.95;92.47;99252.69;6163567;22;103818;-80
2021/04/08 00:21:11;;;;;;;5.90;3.60;;;;;;;2.02;91.75;99249.03;6162704;22;102897;-79
2021/04/08 00:23:39;;;;;;;3.03;2.73;;;;;;;2.02;92.22;99254.25;6164235;22;103202;-79
2021/04/08 00:26:06;;;;;;;4.43;3.60;;;;;;;1.92;92.31;99252.78;6162542;22;103873;-80
2021/04/08 00:28:33;;;;;;;4.93;3.50;;;;;;;1.93;91.97;99254.50;6163345;22;105046;-79
2021/04/08 00:31:00;;;;;;;4.83;2.97;;;;;;;1.93;91.66;99262.31;6145146;22;103148;-79
2021/04/08 00:33:27;;;;;;;4.73;3.33;;;;;;;2.03;91.34;99256.78;6141068;22;103033;-80
2021/04/08 00:35:55;;;;;;;5.33;3.60;;;;;;;1.94;90.59;99254.44;6162775;22;105203;-79
2021/04/08 00:38:22;;;;;;;4.50;3.20;;;;;;;1.93;90.45;99259.72;6136273;22;103178;-79
2021/04/08 00:40:49;;;;;;;4.63;3.30;;;;;;;1.99;90.64;99260.41;6134684;22;102928;-78
2021/04/08 00:43:17;;;;;;;4.53;2.87;;;;;;;2.10;90.09;99260.06;6112061;22;103094;-80
2021/04/08 00:45:47;;;;;;;4.10;2.90;;;;;;;2.25;88.76;99262.22;6134833;22;106327;-79
2021/04/08 00:48:15;;;;;;;3.03;2.73;;;;;;;2.32;87.84;99256.78;6163618;22;104128;-79
2021/04/08 00:50:42;;;;;;;4.97;2.97;;;;;;;2.26;88.07;99269.13;6121725;22;103405;-80
2021/04/08 00:53:12;;;;;;;4.10;3.30;;;;;;;2.23;87.99;99269.22;6163079;22;103335;-79
2021/04/08 00:55:41;;;;;;;4.63;3.10;;;;;;;2.33;88.11;99265.44;6162132;22;106238;-79
2021/04/08 00:58:10;;;;;;;3.87;3.53;;;;;;;2.28;87.61;99264.72;6136488;22;103320;-79
2021/04/08 01:00:40;;;;;;;4.33;3.40;;;;;;;2.20;87.71;99274.53;6161355;22;102724;-80
2021/04/08 01:03:07;;;;;;;6.13;3.40;;;;;;;2.19;87.38;99273.66;6162753;22;103088;-79
2021/04/08 01:05:35;;;;;;;3.57;3.27;;;;;;;2.23;86.81;99279.66;6160282;22;104120;-78
2021/04/08 01:08:02;;;;;;;4.40;3.67;;;;;;;2.40;85.79;99280.00;6125512;22;105416;-79
2021/04/08 01:10:30;;;;;;;5.40;3.40;;;;;;;2.41;85.70;99279.13;6159223;22;102849;-79
2021/04/08 01:12:59;;;;;;;4.00;2.97;;;;;;;2.44;85.71;99284.25;6163447;22;102863;-80
2021/04/08 01:15:27;;;;;;;6.03;3.30;;;;;;;2.43;85.27;99281.66;6135144;22;104614;-79
2021/04/08 01:18:02;;;;;;;4.17;3.30;;;;;;;2.49;84.96;99287.56;6162439;22;103127;-79
2021/04/08 01:20:50;;;;;;;3.33;2.83;;;;;;;2.36;84.21;99291.41;6162481;22;103341;-79
2021/04/08 01:23:54;;;;;;;4.60;3.20;;;;;;;2.43;83.41;99292.97;6164387;22;103384;-80
2021/04/08 01:26:59;;;;;;;3.30;2.90;;;;;;;2.52;82.38;99295.28;6120771;22;108508;-79
2021/04/08 01:29:41;;;;;;;5.80;3.00;;;;;;;2.60;82.04;99290.69;6162303;22;103526;-79
2021/04/08 01:32:10;;;;;;;4.67;2.90;;;;;;;2.58;81.53;99305.56;6161679;22;103052;-79
2021/04/08 01:34:41;;;;;;;5.40;3.40;;;;;;;2.63;82.12;99300.19;6163699;22;102827;-79
2021/04/08 01:37:11;;;;;;;5.13;2.83;;;;;;;2.66;81.42;99306.16;6111674;22;104058;-79
2021/04/08 01:39:40;;;;;;;5.97;3.40;;;;;;;2.77;81.07;99309.28;6164223;22;105379;-79
2021/04/08 01:42:10;;;;;;;5.30;2.93;;;;;;;2.65;81.54;99309.66;6146744;22;103369;-79
2021/04/08 01:44:39;;;;;;;5.77;3.40;;;;;;;2.55;82.61;99323.91;6140900;22;103118;-79
2021/04/08 01:47:09;;;;;;;6.73;3.50;;;;;;;2.54;83.00;99330.00;6163823;22;104224;-79
2021/04/08 01:49:41;;;;;;;5.37;3.50;;;;;;;2.62;83.46;99325.41;6164927;22;105771;-79
2021/04/08 01:52:13;;;;;;;6.10;3.10;;;;;;;2.59;83.01;99328.09;6163921;22;103575;-80
2021/04/08 01:54:43;;;;;;;3.83;3.27;;;;;;;2.72;82.04;99326.81;6164185;22;103013;-78
2021/04/08 01:57:13;;;;;;;3.97;3.00;;;;;;;2.87;82.30;99336.78;6162247;22;104419;-79
2021/04/08 01:59:43;;;;;;;3.57;2.90;;;;;;;2.79;82.14;99338.78;6146310;22;104248;-79
2021/04/08 02:02:12;;;;;;;4.30;2.80;;;;;;;2.86;82.61;99339.47;6139247;22;103273;-79
2021/04/08 02:04:41;;;;;;;6.00;3.03;;;;;;;2.83;82.33;99343.03;6163863;22;102988;-80
2021/04/08 02:07:08;;;;;;;5.33;2.90;;;;;;;2.81;81.65;99336.97;6136068;22;103633;-78
2021/04/08 02:09:38;;;;;;;4.37;3.17;;;;;;;2.62;81.28;99334.97;6113036;22;105955;-80
2021/04/08 02:12:07;;;;;;;2.90;2.63;;;;;;;2.76;81.41;99338.88;6164236;22;103019;-80
2021/04/08 02:14:36;;;;;;;3.23;2.10;;;;;;;2.81;81.83;99342.19;6138021;22;103224;-80
2021/04/08 02:17:06;;;;;;;3.00;2.60;;;;;;;2.70;81.14;99344.28;6163701;22;105244;-80
2021/04/08 02:19:34;;;;;;;4.57;2.20;;;;;;;2.80;81.10;99340.50;6098254;22;103659;-79
2021/04/08 02:22:03;;;;;;;3.33;2.33;;;;;;;2.82;80.92;99337.84;6162897;22;103305;-80
2021/04/08 02:24:32;;;;;;;4.83;2.67;;;;;;;2.76;80.49;99343.25;6137028;22;103214;-79
2021/04/08 02:27:01;;;;;;;3.67;2.33;;;;;;;2.83;80.04;99344.78;6163830;22;105279;-79
2021/04/08 02:29:29;;;;;;;2.30;2.00;;;;;;;2.91;79.97;99353.22;6164343;22;103298;-79
2021/04/08 02:31:59;;;;;;;3.20;2.47;;;;;;;2.96;80.16;99345.22;6137043;22;103051;-79
2021/04/08 02:34:26;;;;;;;3.67;2.50;;;;;;;2.99;79.76;99342.53;6163849;22;102830;-80
2021/04/08 02:36:53;;;;;;;3.83;2.63;;;;;;;2.90;80.68;99347.13;6122643;22;104160;-79
2021/04/08 02:39:21;;;;;;;5.07;2.60;;;;;;;2.93;79.38;99347.06;6137506;22;106703;-78
2021/04/08 02:41:48;;;;;;;3.87;2.40;;;;;;;2.87;79.20;99348.97;6164231;22;102925;-79
2021/04/08 02:44:16;;;;;;;2.87;2.20;;;;;;;2.92;78.63;99355.78;6163657;22;103292;-80
2021/04/08 02:46:44;;;;;;;2.80;2.40;;;;;;;2.80;79.73;99350.94;6134986;22;106091;-79
2021/04/08 02:49:12;;;;;;;4.03;2.40;;;;;;;2.96;79.00;99355.69;6164453;22;103747;-78
2021/04/08 02:51:44;;;;;;;3.80;2.50;;;;;;;2.84;79.37;99357.78;6163716;22;102978;-79
2021/04/08 02:54:19;;;;;;;3.27;2.30;;;;;;;3.01;79.35;99364.22;6129643;22;103210;-79
2021/04/08 02:56:52;;;;;;;2.77;1.90;;;;;;;3.00;79.66;99363.38;6155813;22;104591;-80
2021/04/08 02:59:24;;;;;;;3.03;2.33;;;;;;;3.02;79.77;99365.94;6164746;22;103536;-79
2021/04/08 03:01:55;;;;;;;2.80;2.00;;;;;;;2.97;79.32;99373.06;6163887;22;102813;-80
2021/04/08 03:04:24;;;;;;;3.33;2.40;;;;;;;2.98;79.22;99372.13;6165010;22;102982;-79
2021/04/08 03:06:52;;;;;;;3.83;2.47;;;;;;;2.97;79.67;99380.88;6162443;22;103686;-78
2021/04/08 03:09:29;;;;;;;4.47;3.00;;;;;;;3.11;79.50;99382.19;6107765;22;108034;-79
2021/04/08 03:12:01;;;;;;;3.07;2.77;;;;;;;3.09;79.62;99386.56;6152092;22;102913;-79
2021/04/08 03:14:29;;;;;;;5.30;2.40;;;;;;;3.02;80.11;99386.81;6137652;22;103083;-78
2021/04/08 03:16:59;;;;;;;5.03;3.27;;;;;;;3.02;78.89;99384.22;6163249;22;104760;-79
2021/04/08 03:19:27;;;;;;;4.83;2.37;;;;;;;2.87;79.15;99391.59;6137700;22;103631;-79
2021/04/08 03:21:54;;;;;;;4.33;2.50;;;;;;;2.95;79.85;99385.31;6163422;22;102960;-79
2021/04/08 03:24:22;;;;;;;3.87;2.40;;;;;;;2.99;78.86;99385.16;6164372;22;102610;-79
2021/04/08 03:26:50;;;;;;;5.40;2.90;;;;;;;3.03;78.87;99393.75;6116228;22;103488;-78
2021/04/08 03:29:18;;;;;;;5.77;3.20;;;;;;;2.93;77.95;99388.81;6142946;22;103564;-79
2021/04/08 03:31:46;;;;;;;4.30;2.77;;;;;;;2.86;77.99;99392.50;6164132;22;103034;-79
2021/04/08 03:34:15;;;;;;;6.37;3.30;;;;;;;2.89;76.47;99388.97;6137578;22;103129;-78
2021/04/08 03:36:43;;;;;;;4.23;3.10;;;;;;;2.93;76.25;99394.03;6161706;22;108055;-81
2021/04/08 03:39:11;;;;;;;3.90;3.30;;;;;;;2.86;74.45;99397.72;6137631;22;104366;-79
2021/04/08 03:41:40;;;;;;;6.13;3.40;;;;;;;2.88;74.32;99395.94;6163814;22;103035;-80
2021/04/08 03:44:09;;;;;;;4.60;3.53;;;;;;;2.84;73.43;99396.06;6148197;22;104546;-82
2021/04/08 03:46:38;;;;;;;6.07;3.73;;;;;;;2.91;73.53;99392.38;6137817;22;106349;-81
2021/04/08 03:49:08;;;;;;;5.60;3.60;;;;;;;2.81;73.82;99394.41;6163211;22;103617;-81
2021/04/08 03:51:36;;;;;;;5.00;3.87;;;;;;;2.83;73.23;99400.44;6164157;22;103270;-81
2021/04/08 03:54:06;;;;;;;7.80;3.60;;;;;;;2.90;73.88;99394.13;6164418;22;103246;-79
2021/04/08 03:56:36;;;;;;;5.63;3.57;;;;;;;2.89;73.76;99395.00;6162301;22;104334;-79
2021/04/08 03:59:04;;;;;;;4.63;3.37;;;;;;;2.92;72.10;99397.53;6164112;22;105093;-80
2021/04/08 04:01:32;;;;;;;6.13;3.47;;;;;;;2.86;71.85;99402.94;6161700;22;102726;-81
2021/04/08 04:04:01;;;;;;;6.13;3.37;;;;;;;2.78;71.91;99401.44;6127344;22;103295;-86
2021/04/08 04:06:30;;;;;;;5.37;3.67;;;;;;;2.83;71.75;99400.44;6159560;22;103587;-89
2021/04/08 04:08:58;;;;;;;5.50;3.60;;;;;;;2.86;70.47;99402.94;6164515;22;103829;-89
2021/04/08 04:11:25;;;;;;;4.67;3.47;;;;;;;2.86;71.01;99408.16;6164897;22;103159;-89
2021/04/08 04:13:53;;;;;;;3.90;2.70;;;;;;;2.85;70.93;99410.81;6138518;22;102885;-89
2021/04/08 04:16:22;;;;;;;3.93;3.37;;;;;;;2.75;70.06;99414.63;6163754;22;103814;-89
2021/04/08 04:18:51;;;;;;;7.93;3.53;;;;;;;2.85;70.61;99423.88;6138373;22;106859;-90
2021/04/08 04:21:19;;;;;;;5.83;3.40;;;;;;;2.78;69.50;99417.13;6132823;22;103188;-89
2021/04/08 04:23:46;;;;;;;5.93;3.80;;;;;;;2.86;70.73;99426.44;6129255;22;103171;-90
2021/04/08 04:26:13;;;;;;;6.37;3.27;;;;;;;2.93;70.60;99427.09;6162409;22;104194;-89
2021/04/08 04:28:40;;;;;;;3.47;3.10;;;;;;;2.87;71.32;99430.75;6164208;22;104641;-89
2021/04/08 04:31:10;;;;;;;4.30;2.83;;;;;;;2.78;71.32;99415.38;6163448;22;102830;-88
2021/04/08 04:33:37;;;;;;;7.20;3.70;;;;;;;2.62;72.16;99414.13;6112323;22;102937;-89
2021/04/08 04:36:06;;;;;;;5.13;3.60;;;;;;;2.79;72.45;99426.66;6163595;22;104104;-89
2021/04/08 04:38:34;;;;;;;5.33;3.23;;;;;;;2.88;72.44;99426.41;6138688;22;104533;-90
2021/04/08 04:41:01;;;;;;;7.03;4.40;;;;;;;2.82;72.35;99430.03;6148303;22;102917;-90
2021/04/08 04:43:28;;;;;;;7.43;3.43;;;;;;;2.90;72.79;99430.66;6138099;22;104176;-90
2021/04/08 04:45:55;;;;;;;6.57;4.10;;;;;;;2.77;73.44;99437.16;6162925;22;103654;-89
2021/04/08 04:48:22;;;;;;;8.83;3.77;;;;;;;2.78;74.49;99441.47;6163693;22;103832;-89
2021/04/08 04:50:51;;;;;;;6.70;4.47;;;;;;;2.72;74.96;99431.19;6163025;22;105152;-88
2021/04/08 04:53:19;;;;;;;6.73;3.90;;;;;;;2.85;75.19;99442.16;6138223;22;102973;-88
2021/04/08 04:55:47;;;;;;;7.50;4.73;;;;;;;2.88;75.30;99448.13;6141732;22;103296;-90
2021/04/08 04:58:14;;;;;;;5.93;3.23;;;;;;;2.95;74.87;99453.19;6114774;22;103604;-89
2021/04/08 05:00:41;;;;;;;5.07;3.83;;;;;;;2.92;75.91;99451.50;6162633;22;103004;-89
2021/04/08 05:03:08;;;;;;;4.00;3.60;;;;;;;2.91;76.85;99453.28;6164527;22;103293;-89
2021/04/08 05:05:35;;;;;;;3.20;2.87;;;;;;;3.01;76.92;99458.19;6162760;22;104239;-89
2021/04/08 05:08:03;;;;;;;8.03;3.90;;;;;;;2.86;77.29;99465.56;6165204;22;103689;-88
2021/04/08 05:10:30;;;;;;;4.63;3.43;;;;;;;2.83;77.51;99465.69;6164741;22;103169;-88
2021/04/08 05:12:58;;;;;;;3.57;3.00;;;;;;;2.96;77.22;99475.75;6165412;22;103196;-86
2021/04/08 05:15:25;;;;;;;5.73;3.73;;;;;;;2.92;77.58;99469.75;6119771;22;103684;-85
2021/04/08 05:18:11;;;;;;;4.83;3.67;;;;;;;2.83;78.35;99470.91;6136798;22;104559;-87
2021/04/08 05:20:38;;;;;;;4.10;3.13;;;;;;;2.94;77.52;99473.22;6137904;22;103355;-80
2021/04/08 05:23:06;;;;;;;3.27;2.97;;;;;;;3.03;77.58;99472.09;6164792;22;103025;-78
2021/04/08 05:25:33;;;;;;;5.43;3.70;;;;;;;3.05;77.68;99472.88;6164372;22;104762;-85
2021/04/08 05:28:01;;;;;;;5.47;4.50;;;;;;;3.01;77.82;99474.72;6165225;22;104813;-80
2021/04/08 05:30:28;;;;;;;3.97;3.53;;;;;;;2.81;77.82;99477.91;6164101;22;103324;-89
2021/04/08 05:32:55;;;;;;;5.80;3.80;;;;;;;2.94;78.01;99481.03;6128988;22;104372;-88
2021/04/08 05:35:22;;;;;;;5.13;3.30;;;;;;;3.06;77.10;99485.88;6159056;22;104560;-88
2021/04/08 05:37:49;;;;;;;6.57;3.13;;;;;;;2.98;77.24;99484.38;6164255;22;105485;-87
2021/04/08 05:40:17;;;;;;;5.63;3.20;;;;;;;2.96;76.53;99491.41;6162249;22;103161;-85
2021/04/08 05:42:45;;;;;;;3.30;3.00;;;;;;;2.97;76.54;99490.53;6165489;22;103804;-87
2021/04/08 05:45:16;;;;;;;5.00;3.53;;;;;;;3.18;76.95;99488.13;6163800;22;106468;-85
2021/04/08 05:47:44;;;;;;;3.80;2.80;;;;;;;3.12;76.33;99493.53;6136643;22;104083;-83
2021/04/08 05:50:13;;;;;;;5.00;3.53;;;;;;;2.88;74.90;99489.91;6110418;22;105354;-83
2021/04/08 05:52:41;;;;;;;4.43;3.27;;;;;;;2.93;74.45;99493.22;6126318;22;102998;-77
2021/04/08 05:55:10;;;;;;;6.10;4.07;;;;;;;3.07;72.80;99499.78;6136026;22;107083;-77
2021/04/08 05:57:37;;;;;;;5.23;4.20;;;;;;;3.13;72.48;99502.22;6164731;22;103850;-80
2021/04/08 06:00:06;;;;;;;5.27;3.53;;;;;;;3.26;71.92;99501.81;6163685;22;103374;-80
2021/04/08 06:02:34;;;;;;;5.57;3.60;;;;;;;3.41;72.14;99508.31;6165165;22;103290;-77
2021/04/08 06:05:05;;;;;;;4.47;3.60;;;;;;;3.40;71.71;99504.00;6162010;22;105510;-92
2021/04/08 06:07:32;;;;;;;4.43;3.63;;;;;;;3.42;71.79;99504.81;6142532;22;103177;-80
2021/04/08 06:10:00;;;;;;;7.00;4.03;;;;;;;3.40;71.46;99509.22;6118984;22;102838;-83
2021/04/08 06:12:27;;;;;;;7.13;3.87;;;;;;;3.47;71.01;99510.75;6164380;22;102587;-82
2021/04/08 06:14:55;;;;;;;7.47;4.17;;;;;;;3.51;70.71;99512.34;6164032;22;104114;-82
2021/04/08 06:17:23;;;;;;;6.17;4.10;;;;;;;3.56;69.94;99513.09;6164126;22;103965;-80
2021/04/08 06:19:52;;;;;;;8.27;4.40;;;;;;;3.67;69.27;99517.97;6138143;22;103579;-80
2021/04/08 06:22:19;;;;;;;5.60;4.43;;;;;;;3.73;70.05;99510.81;6164989;22;104363;-77
2021/04/08 06:24:46;;;;;;;6.47;4.17;;;;;;;3.77;69.51;99515.00;6147472;22;111359;-80
2021/04/08 06:27:14;;;;;;;6.00;4.40;;;;;;;3.90;69.64;99515.47;6138032;22;104587;-78
2021/04/08 06:29:41;;;;;;;5.93;4.13;;;;;;;4.02;68.24;99520.28;6135975;22;103042;-88
2021/04/08 06:32:09;;;;;;;5.50;3.77;;;;;;;3.94;69.03;99523.16;6164665;22;103095;-90
2021/04/08 06:34:36;;;;;;;4.40;2.97;;;;;;;4.12;68.55;99521.72;6137048;22;104746;-91
2021/04/08 06:37:04;;;;;;;8.07;3.90;;;;;;;4.05;67.87;99515.81;6137121;22;104755;-89
2021/04/08 06:39:34;;;;;;;4.77;3.77;;;;;;;3.85;67.87;99522.59;6164947;22;103443;-90
2021/04/08 06:42:02;;;;;;;6.83;4.03;;;;;;;3.99;67.96;99529.09;6138237;22;103180;-90
2021/04/08 06:44:32;;;;;;;5.23;3.73;;;;;;;4.05;67.43;99523.66;6099594;22;104297;-90
2021/04/08 06:47:02;;;;;;;5.40;3.43;;;;;;;4.08;68.14;99510.50;6164031;22;105357;-90
2021/04/08 06:49:35;;;;;;;6.10;4.10;;;;;;;4.42;66.88;99519.81;6138247;22;103602;-85
2021/04/08 06:52:03;;;;;;;6.87;4.07;;;;;;;4.45;67.48;99519.69;6164011;22;103412;-79
2021/04/08 06:54:33;;;;;;;4.63;3.80;;;;;;;4.14;66.64;99519.03;6162339;22;105111;-76
2021/04/08 06:57:00;;;;;;;5.37;3.87;;;;;;;4.24;67.76;99525.69;6162844;22;104615;-75
2021/04/08 06:59:28;;;;;;;5.87;3.90;;;;;;;4.40;66.15;99526.88;6163789;22;103145;-77
2021/04/08 07:01:56;;;;;;;5.67;4.27;;;;;;;4.25;64.74;99532.59;6104055;22;103388;-73
2021/04/08 07:04:23;;;;;;;4.77;4.20;;;;;;;4.76;63.31;99520.34;6155669;22;104365;-74
2021/04/08 07:06:51;;;;;;;6.13;4.20;;;;;;;4.85;63.20;99524.38;6162121;22;105655;-75
2021/04/08 07:09:18;;;;;;;5.37;4.20;;;;;;;4.99;63.43;99524.75;6164329;22;102877;-75
2021/04/08 07:11:47;;;;;;;4.73;3.97;;;;;;;5.03;63.33;99535.03;6164668;22;103195;-73
2021/04/08 07:14:16;;;;;;;4.00;3.43;;;;;;;5.31;62.79;99534.00;6163777;22;103754;-73
2021/04/08 07:16:43;;;;;;;5.30;4.67;;;;;;;5.11;60.81;99543.47;6163455;22;103574;-80
2021/04/08 07:19:11;;;;;;;8.83;4.73;;;;;;;5.09;59.73;99540.06;6106473;22;102891;-76
2021/04/08 07:21:39;;;;;;;6.33;4.17;;;;;;;4.80;58.40;99528.94;6150787;22;103279;-76
2021/04/08 07:24:11;;;;;;;5.83;4.23;;;;;;;5.04;59.10;99541.13;6162644;22;104180;-75
2021/04/08 07:26:58;;;;;;;8.53;4.50;;;;;;;5.27;59.27;99538.53;6162387;22;105004;-74
2021/04/08 07:29:44;;;;;;;7.23;4.67;;;;;;;5.30;57.85;99542.78;6163582;22;103318;-78
2021/04/08 07:32:13;;;;;;;6.20;4.80;;;;;;;5.31;58.16;99544.47;6111013;22;102637;-73
2021/04/08 07:34:44;;;;;;;6.37;4.60;;;;;;;5.34;57.37;99541.75;6134982;22;107641;-75
2021/04/08 07:37:12;;;;;;;7.43;3.93;;;;;;;5.50;57.59;99542.88;6127854;22;103966;-77
2021/04/08 07:39:41;;;;;;;7.67;4.07;;;;;;;5.73;56.38;99545.44;6131074;22;102980;-79
2021/04/08 07:42:11;;;;;;;6.40;4.20;;;;;;;5.83;56.48;99550.28;6162504;22;103240;-76
2021/04/08 07:44:47;;;;;;;6.30;3.93;;;;;;;6.09;55.65;99557.13;6161525;22;104306;-78
2021/04/08 07:47:20;;;;;;;8.30;4.47;;;;;;;5.64;54.88;99565.00;6162539;22;104161;-74
2021/04/08 07:49:49;;;;;;;5.13;3.77;;;;;;;5.69;53.68;99563.09;6164073;22;102941;-80
2021/04/08 07:52:26;;;;;;;6.70;4.33;;;;;;;6.05;52.87;99559.94;6163838;22;103239;-79
2021/04/08 07:55:04;;;;;;;6.17;3.80;;;;;;;6.01;52.29;99561.81;6126749;22;104844;-76
2021/04/08 07:57:33;;;;;;;7.63;3.73;;;;;;;5.85;52.05;99560.75;6161483;22;104579;-75
2021/04/08 08:00:17;;;;;;;6.03;4.00;;;;;;;6.03;52.22;99578.38;6164332;22;102949;-75
2021/04/08 08:02:45;;;;;;;8.13;3.77;;;;;;;6.36;52.17;99576.13;6164368;22;102791;-75
2021/04/08 08:05:18;;;;;;;3.40;2.93;;;;;;;6.64;51.40;99568.81;6162760;22;103908;-74
2021/04/08 08:07:46;;;;;;;6.80;3.43;;;;;;;7.14;49.93;99569.22;6163928;22;104737;-75
2021/04/08 08:10:19;;;;;;;6.10;3.77;;;;;;;7.39;49.78;99571.59;6135289;22;102944;-74
2021/04/08 08:12:47;;;;;;;5.87;3.47;;;;;;;8.01;47.74;99566.03;6127994;22;103384;-76
2021/04/08 08:15:18;;;;;;;4.13;2.83;;;;;;;8.24;45.75;99563.13;6159137;22;104801;-75
2021/04/08 08:17:46;;;;;;;5.60;3.40;;;;;;;8.64;45.10;99568.16;6163743;22;105223;-74
2021/04/08 08:20:16;;;;;;;5.03;3.93;;;;;;;8.64;44.67;99570.78;6164186;22;102948;-79
2021/04/08 08:22:44;;;;;;;6.73;3.80;;;;;;;8.81;46.09;99569.06;6164054;22;103173;-72
2021/04/08 08:25:14;;;;;;;6.40;3.80;;;;;;;8.60;44.19;99566.59;6111233;22;104645;-72
2021/04/08 08:27:47;;;;;;;6.57;4.00;;;;;;;8.43;44.19;99574.47;6162411;22;103188;-72
2021/04/08 08:30:18;;;;;;;6.40;4.60;;;;;;;9.07;45.92;99573.81;6129154;22;102856;-75
2021/04/08 08:33:11;;;;;;;5.13;4.20;;;;;;;8.41;46.63;99567.59;6157758;22;103708;-72
2021/04/08 08:35:39;;;;;;;6.07;4.90;;;;;;;7.73;47.08;99570.88;6160536;22;103378;-72
2021/04/08 08:38:10;;;;;;;6.67;4.50;;;;;;;8.62;45.93;99579.66;6162930;22;104126;-74
2021/04/08 08:40:38;;;;;;;6.10;5.50;;;;;;;8.58;48.13;99573.72;6163501;22;102922;-73
2021/04/08 08:43:07;;;;;;;8.50;5.97;;;;;;;9.18;48.09;99568.81;6138065;22;103017;-76
2021/04/08 08:45:35;;;;;;;4.97;4.47;;;;;;;8.63;49.13;99576.97;6111132;22;107070;-72
2021/04/08 08:48:07;;;;;;;8.03;5.30;;;;;;;9.01;48.08;99577.63;6131071;22;103953;-74
2021/04/08 08:50:35;;;;;;;6.13;4.80;;;;;;;9.48;48.31;99571.63;6156607;22;103122;-74
2021/04/08 08:53:04;;;;;;;6.03;4.10;;;;;;;8.84;49.44;99574.19;6165789;22;103178;-75
2021/04/08 08:55:32;;;;;;;6.03;4.13;;;;;;;8.68;49.16;99580.22;6163482;22;103224;-77
2021/04/08 08:58:00;;;;;;;7.20;4.70;;;;;;;8.27;49.88;99570.91;6164902;22;104528;-79
2021/04/08 09:00:29;;;;;;;6.37;4.13;;;;;;;7.97;48.87;99569.75;6136325;22;102856;-77
2021/04/08 09:03:01;;;;;;;4.87;3.93;;;;;;;8.06;49.06;99574.53;6139075;22;102977;-81
2021/04/08 09:05:30;;;;;;;5.57;3.70;;;;;;;8.70;48.86;99573.06;6133226;22;103600;-80
2021/04/08 09:08:00;;;;;;;4.77;3.43;;;;;;;9.65;46.89;99577.69;6154465;22;103815;-78
2021/04/08 09:10:48;;;;;;;6.03;3.80;;;;;;;8.50;47.39;99578.53;6113047;22;103635;-77
2021/04/08 09:13:18;;;;;;;8.63;4.17;;;;;;;8.91;47.05;99559.75;6165105;22;103053;-75
2021/04/08 09:15:49;;;;;;;5.23;3.93;;;;;;;8.67;48.45;99567.97;6163952;22;103633;-75
2021/04/08 09:18:20;;;;;;;7.10;4.27;;;;;;;7.19;49.67;99575.13;6166045;22;103714;-76
2021/04/08 09:20:50;;;;;;;4.47;2.73;;;;;;;7.46;51.52;99573.03;6165209;22;103041;-79
2021/04/08 09:23:18;;;;;;;4.17;3.70;;;;;;;7.32;50.30;99570.19;6136617;22;102913;-75
2021/04/08 09:25:51;;;;;;;5.57;3.43;;;;;;;7.69;51.80;99585.13;6150199;22;104463;-74
2021/04/08 09:28:19;;;;;;;4.73;3.53;;;;;;;7.14;51.57;99577.09;6164945;22;104309;-73
2021/04/08 09:30:58;;;;;;;3.87;3.47;;;;;;;7.20;52.56;99587.34;6164478;22;103024;-75
2021/04/08 09:33:56;;;;;;;6.53;3.67;;;;;;;7.28;51.50;99579.13;6165493;22;102886;-77
2021/04/08 09:36:39;;;;;;;4.10;3.47;;;;;;;6.81;53.04;99599.59;6128751;22;103773;-76
2021/04/08 09:39:25;;;;;;;4.70;3.73;;;;;;;6.26;54.92;99590.56;6165149;22;104108;-81
2021/04/08 09:41:57;;;;;;;4.07;3.67;;;;;;;6.77;54.80;99598.00;6123500;22;103663;-81
2021/04/08 09:44:26;;;;;;;6.97;4.53;;;;;;;6.90;53.38;99589.56;6165605;22;103001;-81
2021/04/08 09:46:56;;;;;;;7.07;4.13;;;;;;;7.15;53.11;99583.22;6162676;22;103642;-81
2021/04/08 09:49:57;;;;;;;6.97;3.87;;;;;;;8.12;51.63;99568.97;6163949;22;105366;-81
2021/04/08 09:52:24;;;;;;;8.13;4.50;;;;;;;8.70;50.67;99565.19;6162831;22;103104;-80
2021/04/08 09:54:56;;;;;;;7.17;4.40;;;;;;;8.99;50.93;99562.81;6164707;22;102859;-80
2021/04/08 09:57:44;;;;;;;7.53;4.00;;;;;;;8.42;52.14;99561.41;6081948;22;108117;-80
2021/04/08 10:00:13;;;;;;;8.53;3.87;;;;;;;7.77;51.82;99564.56;6151532;22;105308;-81
2021/04/08 10:02:57;;;;;;;6.47;4.00;;;;;;;7.28;51.46;99558.09;6164731;22;103859;-80
2021/04/08 10:05:31;;;;;;;5.57;3.47;;;;;;;7.99;53.06;99558.22;6137274;22;103238;-81
2021/04/08 10:08:04;;;;;;;4.40;4.00;;;;;;;7.36;52.82;99555.97;6164871;22;104050;-81
2021/04/08 10:10:43;;;;;;;5.00;4.10;;;;;;;7.64;50.34;99561.66;6165075;22;104711;-81
2021/04/08 10:13:21;;;;;;;6.40;4.33;;;;;;;8.11;51.56;99557.59;6165869;22;102952;-80
2021/04/08 10:15:50;;;;;;;5.17;3.60;;;;;;;8.72;50.06;99568.59;6130786;22;102902;-78
2021/04/08 10:18:20;;;;;;;5.83;5.03;;;;;;;7.16;50.23;99556.88;6156538;22;108412;-74
2021/04/08 10:20:49;;;;;;;5.53;4.23;;;;;;;6.55;51.23;99568.34;6164449;22;104961;-77
2021/04/08 10:23:30;;;;;;;5.53;5.03;;;;;;;7.10;50.71;99561.56;6138311;22;103193;-73
2021/04/08 10:25:58;;;;;;;5.87;4.70;;;;;;;6.94;50.92;99562.22;6170091;22;102841;-80
2021/04/08 10:28:26;;;;;;;5.40;4.50;;;;;;;7.35;51.71;99560.38;6178680;22;104754;-76
2021/04/08 10:30:53;;;;;;;8.20;5.07;;;;;;;7.46;50.02;99563.38;6185330;22;105088;-80
2021/04/08 10:33:23;;;;;;;6.77;4.83;;;;;;;7.34;50.98;99563.06;6165177;22;103008;-83
2021/04/08 10:36:00;;;;;;;9.87;5.10;;;;;;;7.22;50.17;99556.59;6138635;22;101830;-82
2021/04/08 10:38:28;;;;;;;5.40;4.90;;;;;;;7.46;50.42;99558.13;6173387;22;102876;-80
2021/04/08 10:40:55;;;;;;;7.80;5.30;;;;;;;7.67;49.81;99550.97;6164173;22;105046;-80
2021/04/08 10:43:25;;;;;;;7.10;5.40;;;;;;;6.79;50.87;99551.56;6163538;22;103293;-80
2021/04/08 10:45:54;;;;;;;5.93;5.33;;;;;;;7.66;50.47;99548.44;6163134;22;105069;-81
2021/04/08 10:48:26;;;;;;;7.13;5.40;;;;;;;7.39;50.59;99540.03;6136707;22;106232;-81
2021/04/08 10:50:55;;;;;;;5.90;5.33;;;;;;;7.12;50.22;99552.69;6113947;22;107218;-81
2021/04/08 10:53:25;;;;;;;9.23;5.27;;;;;;;8.46;49.52;99550.63;6147461;22;103029;-78
2021/04/08 10:55:54;;;;;;;6.47;4.50;;;;;;;7.82;49.88;99545.00;6164700;22;103218;-80
2021/04/08 10:58:24;;;;;;;6.47;5.23;;;;;;;8.93;50.10;99542.06;6136610;22;105445;-79
2021/04/08 11:00:52;;;;;;;6.03;5.20;;;;;;;9.31;47.62;99543.53;6164037;22;103699;-79
2021/04/08 11:03:19;;;;;;;9.03;5.10;;;;;;;9.06;48.02;99543.13;6164286;22;102815;-80
2021/04/08 11:05:53;;;;;;;9.63;4.90;;;;;;;8.97;46.66;99535.69;6161340;22;103012;-80
2021/04/08 11:08:22;;;;;;;5.97;5.37;;;;;;;9.08;47.03;99543.91;6139999;22;103670;-80
2021/04/08 11:10:49;;;;;;;4.93;4.30;;;;;;;8.99;47.98;99547.00;6144638;22;103860;-79
2021/04/08 11:13:18;;;;;;;7.20;5.03;;;;;;;9.07;45.48;99545.66;6164571;22;102947;-79
2021/04/08 11:15:45;;;;;;;4.87;4.13;;;;;;;9.34;47.40;99543.38;6163325;22;103262;-80
2021/04/08 11:18:19;;;;;;;5.27;4.47;;;;;;;9.48;45.30;99532.91;6164163;22;103779;-80
2021/04/08 11:20:49;;;;;;;7.00;4.83;;;;;;;9.50;45.60;99538.09;6162518;22;109311;-80
2021/04/08 11:23:18;;;;;;;5.20;4.40;;;;;;;9.76;45.68;99541.00;6137514;22;103047;-80
2021/04/08 11:26:00;;;;;;;5.07;3.80;;;;;;;9.61;44.71;99528.66;6162814;22;103285;-80
2021/04/08 11:28:27;;;;;;;5.07;4.23;;;;;;;9.40;46.15;99532.50;6121146;22;108415;-83
2021/04/08 11:30:55;;;;;;;8.90;5.93;;;;;;;8.29;45.48;99542.72;6162236;22;104412;-76
2021/04/08 11:33:24;;;;;;;6.00;4.47;;;;;;;8.89;47.23;99527.34;6160071;22;103778;-79
2021/04/08 11:35:51;;;;;;;4.97;4.03;;;;;;;9.48;45.82;99525.00;6161568;22;103064;-77
2021/04/08 11:38:22;;;;;;;4.17;3.77;;;;;;;10.03;45.37;99521.91;6164028;22;104388;-75
2021/04/08 11:40:51;;;;;;;4.93;4.40;;;;;;;9.90;43.42;99513.84;6163873;22;104054;-74
2021/04/08 11:43:21;;;;;;;4.90;4.37;;;;;;;9.55;43.33;99520.22;6164875;22;103621;-74
2021/04/08 11:45:49;;;;;;;7.07;4.80;;;;;;;8.54;45.08;99522.13;6125871;22;103473;-74
2021/04/08 11:48:18;;;;;;;7.97;5.37;;;;;;;7.87;47.90;99515.84;6160798;22;104646;-74